Detalii statie AGROSAMI SACALAZ [00001988]

Toti senzorii

Date Temperatura solului [C]Precipitatii [mm]Voltaj baterie [mV]Leaf Wetness [Min]HC Air temperature [C]HC Relative humidity [%]Punctul de roua [C]
medieminmaxsumaultimatimpmedieminmaxmediemediemin
2019-04-19 19:00:00 0 7148 18.66 17.36 20.23 0.03 0 0
2019-04-19 20:00:00 0 7000 15.62 13.92 17.02 1.92 -7.7 0
2019-04-19 21:00:00 0 6972 11.56 9.37 13.65 21.16 -14.5 0
2019-04-19 22:00:00 0 6894 8.89 8.14 9.58 26.13 -10 -15.9
2019-04-19 23:00:00 0 6904 7.34 6.47 7.93 37.29 -6.5 -8.6
2019-04-20 00:00:00 0 6904 6.76 6.29 7.71 29.92 -9.8 -13.7
2019-04-20 01:00:00 0 6854 7.28 6.25 7.68 29.56 -9.5 -13.5
2019-04-20 02:00:00 0 6894 6.99 6.63 7.23 41.36 -5.5 -9.2
2019-04-20 03:00:00 0 6894 6.38 6.1 6.75 36.81 -7.7 -10.4
2019-04-20 04:00:00 0 6904 4.99 3.51 6.7 87.65 2.7 -2.6
2019-04-20 05:00:00 0 6914 2.75 2.35 3.28 97.94 2.3 1.5
2019-04-20 06:00:00 0 6914 2.8 2.12 3.53 97.26 2.3 1.9
2019-04-20 07:00:00 0 6962 2.62 2.27 3.47 99.48 2.4 2.2
2019-04-20 08:00:00 0 7010 8.15 4.16 12.68 71.49 2.4 -1.5
2019-04-20 09:00:00 0 7040 14.97 13.4 16.21 59.25 6.6 1.6
2019-04-20 10:00:00 0 7226 17.22 15.98 18.15 50.08 6 0.1
2019-04-20 11:00:00 0 7324 19.62 18.48 21.46 16.71 -10.4 -30.6
2019-04-20 12:00:00 0 7332 20.14 18.52 21.81 53.62 9.6 2.4
2019-04-20 13:00:00 0 7324 21.02 20.01 22.4 33.56 4 1.7
2019-04-20 14:00:00 0 7324 21.59 20.93 22.46 38.74 6.6 3.9
2019-04-20 15:00:00 0 7324 22.27 21.44 23.79 51.18 11.5 10.6
2019-04-20 16:00:00 0 7324 21.47 20.99 21.92 51.19 10.7 8.7
2019-04-20 17:00:00 0 7324 20.92 20.39 21.33 59.45 12.5 11.6
2019-04-20 18:00:00 0 7236 19.58 18.94 20.44 47.05 7.6 4.6
2019-04-20 19:00:00 0 7080 17.54 16.21 18.7 63 10.1 8.4
2019-04-20 20:00:00 0 6992 14.52 13.21 16 80.19 10.8 5.7
2019-04-20 21:00:00 0 6982 12.84 11.41 13.43 89.99 11.1 9.7
2019-04-20 22:00:00 0 6992 9.84 8.86 11.55 96.14 9.1 8.3
2019-04-20 23:00:00 0 6992 8.8 8.32 9.5 97.34 8.2 8
2019-04-21 00:00:00 0 6972 8.01 7.1 8.82 97.81 7.5 7.1
2019-04-21 01:00:00 0 6972 7.14 6.98 7.45 98.37 6.8 6.4
2019-04-21 02:00:00 0 6962 5.83 5.38 7.26 99.64 5.7 5.3
2019-04-21 03:00:00 0 6952 5.27 4.78 5.63 100 5.2 4.7
2019-04-21 04:00:00 0 6962 3.88 3.3 4.73 100 3.8 3.3
2019-04-21 05:00:00 0 6942 2.87 2.61 3.1 100 2.8 2.6
2019-04-21 06:00:00 0 6932 2.57 2.45 2.68 100 2.5 2.4
2019-04-21 07:00:00 0 6992 3.93 2.79 5.32 100 3.8 2.7
2019-04-21 08:00:00 0 7158 7.94 5.8 10.85 100 7.9 5.8
2019-04-21 09:00:00 0 7246 12.67 11.09 13.52 99.99 12.6 11
2019-04-21 10:00:00 0 7314 15.09 14.12 16.4 95.71 14.2 13.3
2019-04-21 11:00:00 0 7332 18.65 16.86 19.96 89.45 16.7 15.3
2019-04-21 12:00:00 0 7332 21.26 19.91 22.29 78.15 17.1 14.7
2019-04-21 13:00:00 0 7324 22.96 21.46 24.36 61.17 14.8 12.8
2019-04-21 14:00:00 0 7324 22.58 20.87 24.18 59.96 14.2 12.5
2019-04-21 15:00:00 0 7314 21.58 20.74 23.39 58.37 12.8 11.3
2019-04-21 16:00:00 0 7332 21.76 21.1 24.86 58.84 13.1 11.5
2019-04-21 17:00:00 0 7314 21.75 20.61 23.49 59.35 13.2 12.5
2019-04-21 18:00:00 0 7324 20.61 20.22 21.7 62.6 13 11.9